Time;durP1;ratioP1;P1;durP2;ratioP2;P2;SDS_P1;SDS_P2;PMS_P1;PMS_P2;Temp;Humidity;BMP_temperature;BMP_pressure;BME280_temperature;BME280_humidity;BME280_pressure;Samples;Min_cycle;Max_cycle;Signal;HPM_P1;HPM_P2
2022/10/21 00:01:53;;;;;;;14.93;7.00;;;;;;;;;;4984476;28;20509;-63
2022/10/21 00:04:19;;;;;;;17.17;7.63;;;;;;;;;;5003156;28;20044;-62
2022/10/21 00:06:45;;;;;;;16.42;8.07;;;;;;;;;;4977620;28;20106;-63
2022/10/21 00:09:11;;;;;;;16.60;8.13;;;;;;;;;;5001141;28;20023;-62
2022/10/21 00:11:36;;;;;;;16.08;8.00;;;;;;;;;;4985007;28;20464;-64
2022/10/21 00:14:02;;;;;;;15.65;8.32;;;;;;;;;;4985864;28;20034;-62
2022/10/21 00:16:27;;;;;;;15.30;8.02;;;;;;;;;;4994336;28;20039;-62
2022/10/21 00:18:52;;;;;;;15.73;9.23;;;;;;;;;;5002407;28;20038;-63
2022/10/21 00:21:20;;;;;;;15.98;9.38;;;;;;;;;;4973761;28;20460;-62
2022/10/21 00:23:47;;;;;;;22.92;8.95;;;;;;;;;;4982417;28;20026;-63
2022/10/21 00:26:13;;;;;;;16.35;8.90;;;;;;;;;;4986866;28;20038;-63
2022/10/21 00:28:39;;;;;;;14.48;9.43;;;;;;;;;;4983653;28;20050;-64
2022/10/21 00:31:07;;;;;;;16.40;9.30;;;;;;;;;;4992207;28;20037;-62
2022/10/21 00:33:33;;;;;;;16.77;9.15;;;;;;;;;;4983615;28;20030;-62
2022/10/21 00:36:04;;;;;;;19.15;9.90;;;;;;;;;;4996756;28;20293;-62
2022/10/21 00:38:30;;;;;;;21.23;9.75;;;;;;;;;;4996184;28;20398;-62
2022/10/21 00:40:56;;;;;;;14.93;9.27;;;;;;;;;;4980484;28;20150;-62
2022/10/21 00:43:23;;;;;;;17.13;10.00;;;;;;;;;;4974155;28;20543;-64
2022/10/21 00:45:52;;;;;;;21.08;9.43;;;;;;;;;;4994854;28;20030;-64
2022/10/21 00:48:23;;;;;;;19.85;9.85;;;;;;;;;;5009299;28;20038;-63
2022/10/21 00:51:06;;;;;;;;;;;;;;;;;;4993290;28;20026;-63
2022/10/21 00:53:34;;;;;;;16.88;9.10;;;;;;;;;;5004231;28;19926;-62
2022/10/21 00:56:05;;;;;;;17.83;9.98;;;;;;;;;;4987669;28;20353;-63
2022/10/21 00:58:32;;;;;;;17.58;9.80;;;;;;;;;;4999264;28;20068;-63
2022/10/21 01:01:00;;;;;;;17.48;9.98;;;;;;;;;;4974263;28;20321;-63
2022/10/21 01:03:28;;;;;;;18.63;10.25;;;;;;;;;;4977575;28;20027;-63
2022/10/21 01:05:56;;;;;;;18.02;10.15;;;;;;;;;;4984712;28;20377;-63
2022/10/21 01:08:22;;;;;;;16.58;9.63;;;;;;;;;;4996586;28;20030;-63
2022/10/21 01:10:47;;;;;;;23.48;10.30;;;;;;;;;;4994281;28;20053;-63
2022/10/21 01:13:25;;;;;;;16.33;9.68;;;;;;;;;;4973789;28;20360;-62
2022/10/21 01:16:09;;;;;;;19.13;10.90;;;;;;;;;;4972828;28;20031;-63
2022/10/21 01:19:02;;;;;;;16.58;9.65;;;;;;;;;;4972466;28;20039;-63
2022/10/21 01:22:14;;;;;;;21.42;9.75;;;;;;;;;;4981816;28;20085;-62
2022/10/21 01:25:03;;;;;;;16.38;9.50;;;;;;;;;;4971080;28;20050;-64
2022/10/21 01:27:47;;;;;;;18.13;9.82;;;;;;;;;;4978450;28;20113;-63
2022/10/21 01:30:16;;;;;;;17.05;10.13;;;;;;;;;;4985455;28;20035;-63
2022/10/21 01:32:50;;;;;;;18.40;10.02;;;;;;;;;;4986041;28;20034;-64
2022/10/21 01:35:22;;;;;;;20.30;10.60;;;;;;;;;;4986123;28;20038;-62
2022/10/21 01:37:54;;;;;;;21.48;9.85;;;;;;;;;;4972027;28;20062;-63
2022/10/21 01:40:22;;;;;;;18.27;9.95;;;;;;;;;;4986518;28;20034;-63
2022/10/21 01:42:47;;;;;;;17.67;10.30;;;;;;;;;;4990793;28;20042;-64
2022/10/21 01:45:31;;;;;;;15.57;9.63;;;;;;;;;;4972089;28;20038;-63
2022/10/21 01:48:03;;;;;;;19.27;10.52;;;;;;;;;;4977271;28;20487;-63
2022/10/21 01:50:35;;;;;;;19.80;10.18;;;;;;;;;;4993981;28;20383;-63
2022/10/21 01:53:05;;;;;;;18.58;10.07;;;;;;;;;;4995690;28;20121;-63
2022/10/21 01:55:31;;;;;;;16.08;9.70;;;;;;;;;;4972394;28;20038;-63
2022/10/21 01:58:05;;;;;;;16.27;9.80;;;;;;;;;;4972755;28;20042;-64
2022/10/21 02:00:33;;;;;;;17.25;10.82;;;;;;;;;;4972392;28;20057;-63
2022/10/21 02:03:03;;;;;;;14.57;9.88;;;;;;;;;;4976363;28;20169;-64
2022/10/21 02:05:31;;;;;;;18.08;9.98;;;;;;;;;;4974088;28;20126;-63
2022/10/21 02:07:56;;;;;;;19.85;9.93;;;;;;;;;;4986206;28;20034;-63
2022/10/21 02:10:26;;;;;;;19.92;10.70;;;;;;;;;;4995790;28;20042;-63
2022/10/21 02:12:55;;;;;;;16.15;10.15;;;;;;;;;;4973986;28;20053;-63
2022/10/21 02:15:22;;;;;;;18.80;10.45;;;;;;;;;;4989414;28;20053;-63
2022/10/21 02:17:54;;;;;;;16.70;10.07;;;;;;;;;;5001300;28;20103;-65
2022/10/21 02:20:23;;;;;;;20.33;11.50;;;;;;;;;;4986990;28;20570;-64
2022/10/21 02:22:49;;;;;;;20.67;10.77;;;;;;;;;;4996967;28;20471;-64
2022/10/21 02:25:26;;;;;;;19.63;10.60;;;;;;;;;;4984614;28;20031;-63
2022/10/21 02:27:52;;;;;;;18.52;10.48;;;;;;;;;;4994371;28;20029;-63
2022/10/21 02:30:17;;;;;;;19.90;10.65;;;;;;;;;;4993228;28;20053;-64
2022/10/21 02:32:49;;;;;;;18.67;10.13;;;;;;;;;;4987973;28;20497;-64
2022/10/21 02:35:26;;;;;;;19.75;11.30;;;;;;;;;;4982928;28;20038;-63
2022/10/21 02:38:20;;;;;;;21.55;11.18;;;;;;;;;;4998651;28;20472;-63
2022/10/21 02:41:00;;;;;;;20.23;11.18;;;;;;;;;;4989034;28;20487;-64
2022/10/21 02:43:35;;;;;;;19.98;10.38;;;;;;;;;;4975930;28;20061;-63
2022/10/21 02:46:06;;;;;;;20.58;11.00;;;;;;;;;;4998551;28;20029;-64
2022/10/21 02:48:33;;;;;;;17.60;10.82;;;;;;;;;;5008218;28;20053;-64
2022/10/21 02:51:00;;;;;;;24.30;12.52;;;;;;;;;;4999895;28;20041;-65
2022/10/21 02:53:26;;;;;;;20.95;11.73;;;;;;;;;;4972789;28;20109;-63
2022/10/21 02:55:51;;;;;;;18.75;11.40;;;;;;;;;;4973433;28;20117;-65
2022/10/21 02:58:16;;;;;;;21.55;12.07;;;;;;;;;;4986438;28;20383;-63
2022/10/21 03:00:42;;;;;;;22.23;12.43;;;;;;;;;;4988554;28;20034;-63
2022/10/21 03:03:07;;;;;;;21.52;11.88;;;;;;;;;;4988049;28;20373;-63
2022/10/21 03:05:32;;;;;;;22.13;11.48;;;;;;;;;;4981394;28;20042;-63
2022/10/21 03:07:58;;;;;;;22.45;12.07;;;;;;;;;;4979332;28;20030;-64
2022/10/21 03:10:23;;;;;;;23.17;12.00;;;;;;;;;;4984039;28;20035;-63
2022/10/21 03:12:49;;;;;;;22.35;11.20;;;;;;;;;;4989295;28;20030;-65
2022/10/21 03:15:15;;;;;;;22.38;12.20;;;;;;;;;;5004420;28;20424;-63
2022/10/21 03:17:40;;;;;;;29.05;13.15;;;;;;;;;;4973421;28;20073;-64
2022/10/21 03:20:06;;;;;;;23.38;12.52;;;;;;;;;;4971421;28;20044;-64
2022/10/21 03:22:32;;;;;;;25.10;12.45;;;;;;;;;;4976707;28;20043;-65
2022/10/21 03:24:57;;;;;;;22.80;12.10;;;;;;;;;;4981704;28;20059;-64
2022/10/21 03:27:23;;;;;;;23.45;12.68;;;;;;;;;;4973125;28;20494;-64
2022/10/21 03:29:48;;;;;;;19.77;11.85;;;;;;;;;;4975726;28;20026;-64
2022/10/21 03:32:13;;;;;;;21.33;11.82;;;;;;;;;;4976156;28;20511;-63
2022/10/21 03:34:39;;;;;;;25.85;12.18;;;;;;;;;;4985213;28;20042;-64
2022/10/21 03:37:04;;;;;;;24.85;11.77;;;;;;;;;;4986492;28;20110;-63
2022/10/21 03:39:29;;;;;;;22.63;11.80;;;;;;;;;;4982018;28;20039;-63
2022/10/21 03:41:55;;;;;;;27.42;11.85;;;;;;;;;;4974648;28;20499;-64
2022/10/21 03:44:20;;;;;;;20.45;10.70;;;;;;;;;;4981775;28;20371;-63
2022/10/21 03:46:45;;;;;;;19.98;10.65;;;;;;;;;;4991594;28;20117;-63
2022/10/21 03:49:11;;;;;;;18.58;10.52;;;;;;;;;;5004631;28;21880;-63
2022/10/21 03:51:36;;;;;;;16.70;9.85;;;;;;;;;;4994448;28;20346;-63
2022/10/21 03:54:02;;;;;;;24.08;10.50;;;;;;;;;;4975455;28;20142;-63
2022/10/21 03:56:27;;;;;;;16.88;9.90;;;;;;;;;;4985293;28;20038;-63
2022/10/21 03:58:53;;;;;;;18.90;10.23;;;;;;;;;;4989820;28;20030;-65
2022/10/21 04:01:18;;;;;;;19.75;10.38;;;;;;;;;;4981077;28;20385;-63
2022/10/21 04:03:43;;;;;;;17.08;9.40;;;;;;;;;;4991757;28;20141;-63
2022/10/21 04:06:09;;;;;;;20.20;9.82;;;;;;;;;;5005789;28;20041;-63
2022/10/21 04:08:34;;;;;;;16.83;9.75;;;;;;;;;;5011219;28;20386;-65
2022/10/21 04:11:00;;;;;;;18.00;9.35;;;;;;;;;;5008161;28;20045;-65
2022/10/21 04:13:25;;;;;;;19.17;9.23;;;;;;;;;;5012934;28;20085;-63
2022/10/21 04:15:57;;;;;;;19.40;9.13;;;;;;;;;;5009853;28;20034;-65
2022/10/21 04:18:22;;;;;;;21.02;8.95;;;;;;;;;;5008815;28;20439;-64
2022/10/21 04:20:48;;;;;;;15.00;8.45;;;;;;;;;;5009777;28;20034;-63
2022/10/21 04:23:13;;;;;;;20.00;9.40;;;;;;;;;;5005943;28;20048;-63
2022/10/21 04:25:38;;;;;;;16.90;8.93;;;;;;;;;;5011540;28;20081;-62
2022/10/21 04:28:04;;;;;;;16.67;8.80;;;;;;;;;;5006634;28;20030;-63
2022/10/21 04:30:29;;;;;;;15.48;8.88;;;;;;;;;;5014006;28;20524;-63
2022/10/21 04:32:55;;;;;;;16.75;8.38;;;;;;;;;;5009723;28;20030;-64
2022/10/21 04:35:20;;;;;;;18.08;8.43;;;;;;;;;;5007879;28;20467;-63
2022/10/21 04:37:45;;;;;;;14.50;8.30;;;;;;;;;;5004652;28;20030;-63
2022/10/21 04:40:11;;;;;;;17.95;8.80;;;;;;;;;;5011495;28;20483;-63
2022/10/21 04:42:36;;;;;;;15.70;9.00;;;;;;;;;;5008334;28;20096;-63
2022/10/21 04:45:02;;;;;;;12.73;7.90;;;;;;;;;;5000593;28;20113;-63
2022/10/21 04:47:27;;;;;;;12.85;7.65;;;;;;;;;;5006576;28;20045;-65
2022/10/21 04:49:53;;;;;;;15.30;8.02;;;;;;;;;;5013052;28;20038;-64
2022/10/21 04:52:18;;;;;;;13.60;7.43;;;;;;;;;;5007405;28;20041;-63
2022/10/21 04:54:43;;;;;;;14.55;7.65;;;;;;;;;;4995700;28;20037;-67
2022/10/21 04:57:09;;;;;;;13.48;7.57;;;;;;;;;;5003117;28;20044;-68
2022/10/21 04:59:34;;;;;;;12.93;7.78;;;;;;;;;;5012495;28;20470;-67
2022/10/21 05:01:59;;;;;;;15.43;8.30;;;;;;;;;;5008352;28;20100;-67
2022/10/21 05:04:25;;;;;;;15.57;7.50;;;;;;;;;;5001342;28;20042;-68
2022/10/21 05:06:50;;;;;;;13.43;7.97;;;;;;;;;;4997166;28;20042;-75
2022/10/21 05:09:16;;;;;;;13.75;8.00;;;;;;;;;;4983134;28;20038;-73
2022/10/21 05:11:41;;;;;;;13.45;7.45;;;;;;;;;;4991173;28;20382;-71
2022/10/21 05:14:06;;;;;;;13.35;7.50;;;;;;;;;;5012124;28;20124;-73
2022/10/21 05:16:32;;;;;;;15.13;8.13;;;;;;;;;;5008870;28;20486;-73
2022/10/21 05:18:58;;;;;;;14.65;8.15;;;;;;;;;;5009048;28;20057;-71
2022/10/21 05:21:23;;;;;;;13.57;7.78;;;;;;;;;;5011259;28;20033;-72
2022/10/21 05:23:49;;;;;;;13.48;7.70;;;;;;;;;;5011524;28;20046;-72
2022/10/21 05:26:14;;;;;;;12.52;7.40;;;;;;;;;;5007439;28;20037;-72
2022/10/21 05:28:39;;;;;;;17.65;7.15;;;;;;;;;;5001584;28;20530;-73
2022/10/21 05:31:05;;;;;;;12.45;7.75;;;;;;;;;;5010471;28;20030;-72
2022/10/21 05:33:30;;;;;;;11.90;7.15;;;;;;;;;;5011477;28;20038;-72
2022/10/21 05:36:01;;;;;;;13.07;7.40;;;;;;;;;;4998305;28;20114;-71
2022/10/21 05:38:29;;;;;;;12.82;7.40;;;;;;;;;;4990678;28;20542;-74
2022/10/21 05:40:55;;;;;;;14.07;7.95;;;;;;;;;;4988098;28;20037;-73
2022/10/21 05:43:21;;;;;;;14.23;7.45;;;;;;;;;;4992687;28;20116;-73
2022/10/21 05:45:46;;;;;;;12.18;7.13;;;;;;;;;;4992284;28;20118;-71
2022/10/21 05:48:11;;;;;;;13.55;7.22;;;;;;;;;;4982241;28;20034;-72
2022/10/21 05:50:37;;;;;;;14.68;7.20;;;;;;;;;;5012284;28;20048;-74
2022/10/21 05:53:02;;;;;;;12.90;7.25;;;;;;;;;;5010242;28;20030;-73
2022/10/21 05:55:28;;;;;;;13.52;7.15;;;;;;;;;;5010662;28;20030;-73
2022/10/21 05:57:53;;;;;;;13.45;7.40;;;;;;;;;;5007767;28;20030;-71
2022/10/21 06:00:19;;;;;;;14.52;7.40;;;;;;;;;;5006295;28;20915;-73
2022/10/21 06:02:44;;;;;;;13.35;7.80;;;;;;;;;;4995991;28;20088;-74
2022/10/21 06:05:09;;;;;;;13.73;7.63;;;;;;;;;;5009011;28;20060;-72
2022/10/21 06:07:35;;;;;;;15.13;7.20;;;;;;;;;;4989485;28;20486;-71
2022/10/21 06:10:01;;;;;;;13.63;6.95;;;;;;;;;;5004092;28;20042;-75
2022/10/21 06:12:26;;;;;;;15.02;7.80;;;;;;;;;;4999830;28;20034;-73
2022/10/21 06:14:52;;;;;;;17.13;8.43;;;;;;;;;;4992656;28;20038;-77
2022/10/21 06:17:17;;;;;;;12.80;7.03;;;;;;;;;;4996222;28;20038;-74
2022/10/21 06:19:43;;;;;;;13.00;7.43;;;;;;;;;;4992251;28;20137;-74
2022/10/21 06:22:08;;;;;;;14.55;7.05;;;;;;;;;;4999626;28;20038;-75
2022/10/21 06:24:34;;;;;;;12.23;7.20;;;;;;;;;;5007590;28;20026;-74
2022/10/21 06:26:59;;;;;;;16.33;7.20;;;;;;;;;;5002963;28;20058;-76
2022/10/21 06:29:26;;;;;;;17.02;7.78;;;;;;;;;;5011219;28;20113;-74
2022/10/21 06:31:51;;;;;;;16.02;8.10;;;;;;;;;;4986612;28;20034;-76
2022/10/21 06:34:17;;;;;;;14.73;7.60;;;;;;;;;;5004312;28;20026;-72
2022/10/21 06:36:42;;;;;;;17.38;8.02;;;;;;;;;;5007063;28;20041;-72
2022/10/21 06:39:07;;;;;;;17.85;8.70;;;;;;;;;;5010600;28;20121;-73
2022/10/21 06:41:33;;;;;;;17.23;8.73;;;;;;;;;;4994133;28;20029;-76
2022/10/21 06:43:59;;;;;;;18.00;9.77;;;;;;;;;;5008056;28;20034;-76
2022/10/21 06:46:25;;;;;;;18.65;8.25;;;;;;;;;;5008234;28;20062;-75
2022/10/21 06:48:50;;;;;;;17.55;8.68;;;;;;;;;;5008097;28;20113;-73
2022/10/21 06:51:18;;;;;;;15.23;8.63;;;;;;;;;;4976889;28;20031;-74
2022/10/21 06:53:45;;;;;;;18.95;8.13;;;;;;;;;;5002883;28;20463;-74
2022/10/21 06:56:15;;;;;;;12.98;7.57;;;;;;;;;;5006623;28;20578;-74
2022/10/21 06:58:44;;;;;;;14.85;7.50;;;;;;;;;;5010323;28;20112;-72
2022/10/21 07:01:12;;;;;;;13.23;6.80;;;;;;;;;;4981840;28;20034;-75
2022/10/21 07:03:38;;;;;;;14.75;7.03;;;;;;;;;;5008728;28;20037;-73
2022/10/21 07:06:04;;;;;;;15.45;6.18;;;;;;;;;;5010513;28;20042;-72
2022/10/21 07:08:30;;;;;;;12.23;6.63;;;;;;;;;;5011247;28;20101;-76
2022/10/21 07:10:56;;;;;;;13.13;6.43;;;;;;;;;;4981375;28;20069;-70
2022/10/21 07:13:22;;;;;;;11.32;6.30;;;;;;;;;;5014905;28;20380;-74
2022/10/21 07:16:00;;;;;;;13.43;6.50;;;;;;;;;;5013205;28;20064;-67
2022/10/21 07:18:26;;;;;;;13.77;6.75;;;;;;;;;;5013884;28;20038;-70
2022/10/21 07:20:51;;;;;;;13.52;6.22;;;;;;;;;;5014965;28;20109;-73
2022/10/21 07:23:17;;;;;;;11.48;6.65;;;;;;;;;;5012851;28;20204;-74
2022/10/21 07:25:42;;;;;;;13.18;6.30;;;;;;;;;;5008642;28;20117;-70
2022/10/21 07:28:08;;;;;;;10.23;6.72;;;;;;;;;;5013036;28;20057;-73
2022/10/21 07:30:43;;;;;;;13.52;6.40;;;;;;;;;;5007190;28;20033;-72
2022/10/21 07:33:10;;;;;;;11.35;6.55;;;;;;;;;;5013257;28;20034;-72
2022/10/21 07:35:36;;;;;;;8.88;5.57;;;;;;;;;;5008906;28;20041;-74
2022/10/21 07:38:02;;;;;;;13.07;6.55;;;;;;;;;;5013429;28;20410;-73
2022/10/21 07:40:28;;;;;;;9.93;5.75;;;;;;;;;;5013329;28;20033;-73
2022/10/21 07:42:55;;;;;;;9.23;5.63;;;;;;;;;;5005151;28;20121;-73
2022/10/21 07:45:20;;;;;;;9.57;5.90;;;;;;;;;;4994464;28;20030;-71
2022/10/21 07:47:46;;;;;;;11.02;5.60;;;;;;;;;;5012019;28;20378;-73
2022/10/21 07:50:12;;;;;;;10.02;5.28;;;;;;;;;;5013543;28;20092;-71
2022/10/21 07:52:44;;;;;;;10.43;5.18;;;;;;;;;;5013168;28;20138;-72
2022/10/21 07:55:11;;;;;;;9.25;5.18;;;;;;;;;;5013513;28;20092;-72
2022/10/21 07:57:37;;;;;;;9.77;5.05;;;;;;;;;;5007606;28;20117;-72
2022/10/21 08:00:04;;;;;;;10.23;5.78;;;;;;;;;;5011218;28;20225;-74
2022/10/21 08:02:30;;;;;;;10.23;5.32;;;;;;;;;;5007144;28;20041;-73
2022/10/21 08:04:55;;;;;;;7.20;5.13;;;;;;;;;;5009826;28;20021;-72
2022/10/21 08:07:20;;;;;;;6.32;4.65;;;;;;;;;;5008068;28;20112;-74
2022/10/21 08:09:46;;;;;;;9.25;5.45;;;;;;;;;;5014031;28;20037;-73
2022/10/21 08:12:11;;;;;;;9.98;5.40;;;;;;;;;;5010888;28;20058;-75
2022/10/21 08:14:38;;;;;;;12.63;5.72;;;;;;;;;;4993547;28;20522;-73
2022/10/21 08:17:03;;;;;;;10.88;5.50;;;;;;;;;;4989846;28;20456;-71
2022/10/21 08:19:29;;;;;;;12.65;5.28;;;;;;;;;;4993842;28;20038;-71
2022/10/21 08:21:55;;;;;;;9.30;6.07;;;;;;;;;;5008679;28;20046;-73
2022/10/21 08:24:22;;;;;;;9.95;5.43;;;;;;;;;;5013884;28;20069;-73
2022/10/21 08:26:48;;;;;;;9.48;5.18;;;;;;;;;;5011419;28;20521;-71
2022/10/21 08:29:13;;;;;;;9.70;5.28;;;;;;;;;;5012625;28;20034;-71
2022/10/21 08:31:39;;;;;;;8.32;5.20;;;;;;;;;;5009411;28;20091;-71
2022/10/21 08:34:04;;;;;;;7.50;4.97;;;;;;;;;;5007162;28;20043;-73
2022/10/21 08:36:30;;;;;;;9.48;4.68;;;;;;;;;;4993932;28;20022;-71
2022/10/21 08:38:57;;;;;;;9.80;5.25;;;;;;;;;;5013808;28;20097;-72
2022/10/21 08:41:28;;;;;;;10.20;4.75;;;;;;;;;;5011491;28;20084;-71
2022/10/21 08:44:33;;;;;;;12.07;5.05;;;;;;;;;;5007616;28;20498;-72
2022/10/21 08:47:30;;;;;;;9.27;4.85;;;;;;;;;;4966094;28;20054;-72
2022/10/21 08:50:03;;;;;;;8.90;4.40;;;;;;;;;;5000186;28;20041;-72
2022/10/21 08:52:41;;;;;;;9.40;5.10;;;;;;;;;;4993528;28;20410;-73
2022/10/21 08:55:19;;;;;;;7.90;4.50;;;;;;;;;;5003647;28;20079;-71
2022/10/21 08:57:46;;;;;;;8.02;4.60;;;;;;;;;;5012243;28;20459;-72
2022/10/21 09:00:43;;;;;;;7.22;4.57;;;;;;;;;;5011199;28;20045;-71
2022/10/21 09:03:11;;;;;;;10.65;4.75;;;;;;;;;;5000202;28;20054;-74
2022/10/21 09:05:46;;;;;;;10.25;4.70;;;;;;;;;;4998266;28;20092;-74
2022/10/21 09:08:36;;;;;;;8.77;4.30;;;;;;;;;;5006742;28;20368;-70
2022/10/21 09:11:08;;;;;;;19.98;5.35;;;;;;;;;;4975738;28;20042;-74
2022/10/21 09:13:51;;;;;;;10.90;4.50;;;;;;;;;;4994525;28;20034;-74
2022/10/21 09:16:47;;;;;;;10.73;4.70;;;;;;;;;;4999115;28;20475;-74
2022/10/21 09:19:26;;;;;;;13.75;4.65;;;;;;;;;;5009034;28;20129;-69
2022/10/21 09:22:00;;;;;;;9.95;4.88;;;;;;;;;;5004518;28;20064;-71
2022/10/21 09:24:55;;;;;;;11.77;4.57;;;;;;;;;;4994698;28;20114;-72
2022/10/21 09:27:21;;;;;;;9.40;4.50;;;;;;;;;;4989261;28;20046;-71
2022/10/21 09:29:55;;;;;;;12.88;5.00;;;;;;;;;;5001408;28;20121;-73
2022/10/21 09:32:32;;;;;;;10.40;4.63;;;;;;;;;;5012005;28;20036;-70
2022/10/21 09:35:16;;;;;;;8.32;4.85;;;;;;;;;;5005761;28;20042;-71
2022/10/21 09:37:55;;;;;;;7.88;4.15;;;;;;;;;;5010452;28;20026;-72
2022/10/21 09:40:22;;;;;;;7.97;4.22;;;;;;;;;;4988502;28;20402;-73
2022/10/21 09:42:51;;;;;;;9.75;3.97;;;;;;;;;;4994661;28;20042;-72
2022/10/21 09:45:37;;;;;;;7.90;4.53;;;;;;;;;;4991546;28;20035;-74
2022/10/21 09:48:05;;;;;;;14.48;4.50;;;;;;;;;;4987949;28;20506;-67
2022/10/21 09:50:33;;;;;;;13.57;4.07;;;;;;;;;;4989870;28;21466;-64
2022/10/21 09:53:37;;;;;;;10.40;3.92;;;;;;;;;;4998321;28;20034;-67
2022/10/21 09:56:08;;;;;;;7.25;3.95;;;;;;;;;;5004924;28;20050;-67
2022/10/21 09:58:36;;;;;;;10.82;4.38;;;;;;;;;;5000520;28;20042;-67
2022/10/21 10:01:03;;;;;;;10.73;4.30;;;;;;;;;;5002430;28;20026;-73
2022/10/21 10:03:33;;;;;;;10.40;4.30;;;;;;;;;;5010520;28;20033;-71
2022/10/21 10:06:00;;;;;;;10.38;4.43;;;;;;;;;;5005037;28;20490;-69
2022/10/21 10:08:36;;;;;;;8.10;3.97;;;;;;;;;;5006213;28;20026;-70
2022/10/21 10:11:01;;;;;;;9.98;4.50;;;;;;;;;;4991636;28;20041;-70
2022/10/21 10:13:29;;;;;;;9.98;4.38;;;;;;;;;;4990860;28;20030;-69
2022/10/21 10:15:55;;;;;;;9.57;4.47;;;;;;;;;;4993236;28;20113;-69
2022/10/21 10:18:22;;;;;;;8.88;4.55;;;;;;;;;;4984528;28;20965;-71
2022/10/21 10:21:13;;;;;;;10.48;4.97;;;;;;;;;;5007454;28;20513;-70
2022/10/21 10:23:51;;;;;;;12.25;4.43;;;;;;;;;;5009617;28;20046;-70
2022/10/21 10:26:20;;;;;;;8.18;4.40;;;;;;;;;;5007889;28;20487;-70
2022/10/21 10:28:51;;;;;;;9.65;5.15;;;;;;;;;;5009228;28;20119;-72
2022/10/21 10:31:30;;;;;;;10.43;4.78;;;;;;;;;;5005558;28;20041;-67
2022/10/21 10:33:59;;;;;;;10.90;4.60;;;;;;;;;;5012439;28;20088;-72
2022/10/21 10:36:37;;;;;;;7.88;4.55;;;;;;;;;;5010166;28;20045;-73
2022/10/21 10:39:14;;;;;;;11.98;4.95;;;;;;;;;;5008857;28;20033;-71
2022/10/21 10:41:45;;;;;;;7.50;4.70;;;;;;;;;;5008868;28;20120;-68
2022/10/21 10:44:25;;;;;;;10.70;5.20;;;;;;;;;;4996649;28;20064;-72
2022/10/21 10:46:56;;;;;;;13.68;4.88;;;;;;;;;;5007702;28;20048;-71
2022/10/21 10:49:22;;;;;;;10.45;4.70;;;;;;;;;;5015006;28;20045;-70
2022/10/21 10:52:11;;;;;;;9.48;4.63;;;;;;;;;;5014237;28;20030;-71
2022/10/21 10:54:39;;;;;;;9.95;4.00;;;;;;;;;;5002632;28;20042;-71
2022/10/21 10:57:22;;;;;;;9.07;3.88;;;;;;;;;;5007220;28;20176;-72
2022/10/21 10:59:54;;;;;;;9.98;3.90;;;;;;;;;;5014222;28;20038;-70
2022/10/21 11:02:44;;;;;;;9.02;4.30;;;;;;;;;;5014621;28;20030;-70
2022/10/21 11:05:17;;;;;;;6.68;3.42;;;;;;;;;;5006369;28;20056;-71
2022/10/21 11:07:46;;;;;;;8.35;4.28;;;;;;;;;;5015213;28;20034;-70
2022/10/21 11:10:41;;;;;;;10.30;4.50;;;;;;;;;;5010078;28;20038;-72
2022/10/21 11:13:15;;;;;;;10.73;4.82;;;;;;;;;;5014197;28;20041;-73
2022/10/21 11:16:10;;;;;;;9.63;4.97;;;;;;;;;;4974838;28;20057;-71
2022/10/21 11:18:56;;;;;;;8.93;4.50;;;;;;;;;;4980265;28;20054;-71
2022/10/21 11:22:09;;;;;;;10.40;5.07;;;;;;;;;;4999285;28;20038;-72
2022/10/21 11:24:34;;;;;;;10.82;5.00;;;;;;;;;;4986521;28;20057;-70
2022/10/21 11:27:29;;;;;;;12.80;5.07;;;;;;;;;;4992650;28;20491;-70
2022/10/21 11:30:18;;;;;;;11.35;5.05;;;;;;;;;;4905128;28;20136;-71
2022/10/21 11:33:05;;;;;;;14.05;5.05;;;;;;;;;;4994295;28;20037;-70
2022/10/21 11:36:00;;;;;;;10.65;5.22;;;;;;;;;;5014235;28;20034;-70
2022/10/21 11:38:49;;;;;;;9.80;5.20;;;;;;;;;;5004396;28;20049;-69
2022/10/21 11:41:41;;;;;;;10.30;5.30;;;;;;;;;;5012918;28;20033;-69
2022/10/21 11:45:00;;;;;;;10.35;5.35;;;;;;;;;;5012448;28;20116;-70
2022/10/21 11:47:47;;;;;;;9.90;5.10;;;;;;;;;;5011101;28;20038;-74
2022/10/21 11:50:47;;;;;;;11.23;5.10;;;;;;;;;;5012256;28;20471;-71
2022/10/21 11:53:31;;;;;;;9.63;5.45;;;;;;;;;;5012957;28;20033;-72
2022/10/21 11:56:14;;;;;;;10.30;5.50;;;;;;;;;;5010025;28;20025;-72
2022/10/21 11:59:13;;;;;;;9.73;5.53;;;;;;;;;;5006819;28;20048;-72
2022/10/21 12:02:12;;;;;;;9.45;5.28;;;;;;;;;;4975500;28;20035;-71
2022/10/21 12:04:49;;;;;;;10.60;5.40;;;;;;;;;;4990416;28;20030;-71
2022/10/21 12:07:43;;;;;;;8.23;4.32;;;;;;;;;;5013489;28;20066;-72
2022/10/21 12:10:12;;;;;;;7.00;4.35;;;;;;;;;;5001473;28;20104;-70
2022/10/21 12:12:41;;;;;;;7.65;4.10;;;;;;;;;;4995520;28;20058;-71
2022/10/21 12:15:16;;;;;;;6.93;4.10;;;;;;;;;;4990192;28;20062;-72
2022/10/21 12:17:43;;;;;;;8.20;3.47;;;;;;;;;;5008024;28;20113;-70
2022/10/21 12:20:20;;;;;;;5.68;3.20;;;;;;;;;;5003760;28;20128;-70
2022/10/21 12:22:46;;;;;;;6.03;3.20;;;;;;;;;;5002684;28;20055;-70
2022/10/21 12:25:11;;;;;;;6.97;3.05;;;;;;;;;;5007857;28;20536;-71
2022/10/21 12:27:43;;;;;;;6.22;2.92;;;;;;;;;;5003297;28;20034;-71
2022/10/21 12:30:23;;;;;;;4.90;2.90;;;;;;;;;;5005335;28;20038;-71
2022/10/21 12:33:19;;;;;;;5.67;2.87;;;;;;;;;;4974424;28;20455;-70
2022/10/21 12:35:52;;;;;;;4.93;2.60;;;;;;;;;;5011870;28;20560;-69
2022/10/21 12:38:23;;;;;;;6.70;3.13;;;;;;;;;;4991663;28;20045;-70
2022/10/21 12:40:50;;;;;;;5.00;2.97;;;;;;;;;;4994318;28;20497;-71
2022/10/21 12:43:27;;;;;;;5.80;2.80;;;;;;;;;;5005900;28;20065;-75
2022/10/21 12:46:06;;;;;;;5.90;2.50;;;;;;;;;;5013631;28;20032;-74
2022/10/21 12:48:38;;;;;;;4.75;2.42;;;;;;;;;;5009505;28;20490;-71
2022/10/21 12:51:06;;;;;;;4.35;2.50;;;;;;;;;;4993156;28;20030;-71
2022/10/21 12:53:40;;;;;;;4.70;2.58;;;;;;;;;;5012685;28;20048;-71
2022/10/21 12:56:08;;;;;;;6.78;2.50;;;;;;;;;;5012507;28;20026;-69
2022/10/21 12:58:42;;;;;;;6.45;2.75;;;;;;;;;;5011627;28;20095;-70
2022/10/21 13:01:38;;;;;;;6.32;2.65;;;;;;;;;;5011962;28;20041;-68
2022/10/21 13:04:24;;;;;;;9.10;2.70;;;;;;;;;;4972275;28;20057;-70
2022/10/21 13:06:55;;;;;;;7.95;2.50;;;;;;;;;;5002656;28;20065;-70
2022/10/21 13:09:40;;;;;;;6.43;2.45;;;;;;;;;;5012367;28;20021;-71
2022/10/21 13:12:09;;;;;;;4.40;2.47;;;;;;;;;;4973891;28;20062;-70
2022/10/21 13:14:41;;;;;;;5.18;2.65;;;;;;;;;;5001414;28;20064;-70
2022/10/21 13:17:21;;;;;;;4.25;2.30;;;;;;;;;;5013591;28;20026;-67
2022/10/21 13:19:55;;;;;;;8.45;2.97;;;;;;;;;;5013310;28;20034;-69
2022/10/21 13:22:38;;;;;;;5.00;2.35;;;;;;;;;;4998600;28;20045;-65
2022/10/21 13:25:15;;;;;;;4.65;2.60;;;;;;;;;;5002680;28;20045;-66
2022/10/21 13:27:50;;;;;;;4.85;2.47;;;;;;;;;;5010009;28;20040;-65
2022/10/21 13:30:31;;;;;;;6.82;2.78;;;;;;;;;;5009837;28;20057;-66
2022/10/21 13:33:21;;;;;;;4.57;2.03;;;;;;;;;;5011366;28;20026;-64
2022/10/21 13:35:49;;;;;;;4.13;2.10;;;;;;;;;;4994692;28;20035;-66
2022/10/21 13:38:44;;;;;;;3.67;2.30;;;;;;;;;;4991290;28;20048;-67
2022/10/21 13:41:25;;;;;;;5.32;2.10;;;;;;;;;;4985202;28;20050;-66
2022/10/21 13:43:56;;;;;;;7.38;2.30;;;;;;;;;;4993444;28;20027;-66
2022/10/21 13:46:34;;;;;;;5.25;2.42;;;;;;;;;;4996184;28;20049;-66
2022/10/21 13:49:00;;;;;;;4.47;2.50;;;;;;;;;;5011772;28;20034;-67
2022/10/21 13:51:45;;;;;;;3.17;2.22;;;;;;;;;;5008574;28;20432;-67
2022/10/21 13:54:14;;;;;;;5.35;2.30;;;;;;;;;;5011998;28;20063;-66
2022/10/21 13:56:40;;;;;;;5.53;2.22;;;;;;;;;;5005159;28;20061;-67
2022/10/21 13:59:17;;;;;;;3.60;2.13;;;;;;;;;;4992325;28;20034;-68
2022/10/21 14:01:46;;;;;;;4.70;2.20;;;;;;;;;;4990893;28;20117;-67
2022/10/21 14:04:14;;;;;;;6.00;2.10;;;;;;;;;;5000846;28;20472;-68
2022/10/21 14:06:45;;;;;;;6.05;2.08;;;;;;;;;;4996023;28;20034;-67
2022/10/21 14:09:17;;;;;;;;;;;;;;;;;;5006417;28;20037;-66
2022/10/21 14:11:47;;;;;;;6.38;1.95;;;;;;;;;;5008803;28;19914;-67
2022/10/21 14:14:15;;;;;;;4.88;2.10;;;;;;;;;;5002125;28;20034;-67
2022/10/21 14:16:50;;;;;;;3.90;1.80;;;;;;;;;;5005418;28;20036;-67
2022/10/21 14:19:45;;;;;;;2.65;1.70;;;;;;;;;;5004160;28;20497;-67
2022/10/21 14:22:18;;;;;;;4.10;1.58;;;;;;;;;;4997734;28;20475;-67
2022/10/21 14:24:48;;;;;;;2.25;1.60;;;;;;;;;;5003393;28;20033;-67
2022/10/21 14:27:18;;;;;;;7.18;1.90;;;;;;;;;;5009689;28;20041;-68
2022/10/21 14:29:44;;;;;;;3.28;1.85;;;;;;;;;;4999864;28;20475;-68
2022/10/21 14:32:19;;;;;;;6.03;1.70;;;;;;;;;;4998346;28;20029;-68
2022/10/21 14:34:55;;;;;;;5.18;1.90;;;;;;;;;;5010990;28;20030;-67
2022/10/21 14:37:22;;;;;;;3.78;2.00;;;;;;;;;;5009361;28;20034;-68
2022/10/21 14:39:47;;;;;;;4.07;1.50;;;;;;;;;;5009266;28;20159;-68
2022/10/21 14:42:16;;;;;;;3.30;1.60;;;;;;;;;;5010089;28;20420;-69
2022/10/21 14:44:44;;;;;;;2.83;1.83;;;;;;;;;;5010897;28;20072;-68
2022/10/21 14:47:36;;;;;;;3.85;1.75;;;;;;;;;;5007898;28;20034;-70
2022/10/21 14:50:02;;;;;;;5.95;1.70;;;;;;;;;;4992887;28;20061;-70
2022/10/21 14:52:33;;;;;;;5.55;1.80;;;;;;;;;;5010280;28;20041;-69
2022/10/21 14:55:07;;;;;;;4.40;1.80;;;;;;;;;;5011213;28;20038;-70
2022/10/21 14:57:39;;;;;;;6.88;1.90;;;;;;;;;;5009980;28;20074;-71
2022/10/21 15:00:08;;;;;;;2.67;1.75;;;;;;;;;;5007129;28;20034;-70